Time,TemperatureF,DewpointF,PressureIn,WindDirection,WindDirectionDegrees,WindSpeedMPH,WindSpeedGustMPH,Humidity,HourlyPrecipIn,Conditions,Clouds,dailyrainin,SoftwareType,DateUTC
2013-06-24 00:02:00,56.5,37.0,29.64,North,359,0.0,1.0,48,0.00,,,0.00,Wunderground v.1.15,2013-06-24 07:02:00,
2013-06-24 00:09:00,56.2,36.2,29.64,NE,55,0.0,1.0,47,0.00,,,0.00,Wunderground v.1.15,2013-06-24 07:09:00,
2013-06-24 00:16:00,55.9,36.5,29.65,NE,55,0.0,0.0,48,0.00,,,0.00,Wunderground v.1.15,2013-06-24 07:16:00,
2013-06-24 00:21:00,55.7,36.8,29.65,NW,318,1.0,1.0,49,0.00,,,0.00,Wunderground v.1.15,2013-06-24 07:21:00,
2013-06-24 00:27:00,55.3,37.0,29.65,ESE,119,0.0,2.0,50,0.00,,,0.00,Wunderground v.1.15,2013-06-24 07:27:00,
2013-06-24 00:34:00,54.8,36.0,29.64,SW,223,1.0,1.0,49,0.00,,,0.00,Wunderground v.1.15,2013-06-24 07:34:00,
2013-06-24 00:39:00,54.8,34.9,29.64,South,171,0.0,1.0,47,0.00,,,0.00,Wunderground v.1.15,2013-06-24 07:39:00,
2013-06-24 00:45:00,54.8,34.9,29.65,South,171,0.0,1.0,47,0.00,,,0.00,Wunderground v.1.15,2013-06-24 07:45:00,
2013-06-24 00:50:00,54.8,35.5,29.65,South,175,0.0,0.0,48,0.00,,,0.00,Wunderground v.1.15,2013-06-24 07:50:00,
2013-06-24 00:55:00,54.5,35.7,29.65,South,175,0.0,0.0,49,0.00,,,0.00,Wunderground v.1.15,2013-06-24 07:55:00,
2013-06-24 01:01:00,53.6,34.9,29.65,South,175,0.0,0.0,49,0.00,,,0.00,Wunderground v.1.15,2013-06-24 08:01:00,
2013-06-24 01:07:00,53.3,36.1,29.65,ENE,71,0.0,2.0,52,0.00,,,0.00,Wunderground v.1.15,2013-06-24 08:07:00,
2013-06-24 01:12:00,53.1,35.9,29.65,ENE,71,0.0,0.0,52,0.00,,,0.00,Wunderground v.1.15,2013-06-24 08:12:00,
2013-06-24 01:17:00,52.9,35.2,29.66,ENE,71,0.0,0.0,51,0.00,,,0.00,Wunderground v.1.15,2013-06-24 08:17:00,
2013-06-24 01:23:00,52.8,35.2,29.66,East,83,0.0,1.0,51,0.00,,,0.00,Wunderground v.1.15,2013-06-24 08:23:00,
2013-06-24 01:29:00,52.8,35.2,29.66,East,83,0.0,1.0,51,0.00,,,0.00,Wunderground v.1.15,2013-06-24 08:29:00,
2013-06-24 01:34:00,52.8,35.6,29.66,East,92,0.0,0.0,52,0.00,,,0.00,Wunderground v.1.15,2013-06-24 08:34:00,
2013-06-24 01:39:00,52.6,35.5,29.66,East,92,0.0,0.0,52,0.00,,,0.00,Wunderground v.1.15,2013-06-24 08:39:00,
2013-06-24 01:44:00,52.5,35.8,29.66,East,92,0.0,0.0,53,0.00,,,0.00,Wunderground v.1.15,2013-06-24 08:44:00,
2013-06-24 01:50:00,52.3,35.7,29.66,East,92,0.0,0.0,53,0.00,,,0.00,Wunderground v.1.15,2013-06-24 08:50:00,
2013-06-24 01:56:00,52.3,35.7,29.66,East,92,0.0,0.0,53,0.00,,,0.00,Wunderground v.1.15,2013-06-24 08:56:00,
2013-06-24 02:01:00,52.2,35.6,29.67,East,92,0.0,0.0,53,0.00,,,0.00,Wunderground v.1.15,2013-06-24 09:01:00,
2013-06-24 02:06:00,52.2,35.1,29.67,East,92,0.0,0.0,52,0.00,,,0.00,Wunderground v.1.15,2013-06-24 09:06:00,
2013-06-24 02:12:00,52.3,35.7,29.67,East,92,0.0,0.0,53,0.00,,,0.00,Wunderground v.1.15,2013-06-24 09:12:00,
2013-06-24 02:17:00,52.5,34.9,29.66,East,92,0.0,0.0,51,0.00,,,0.00,Wunderground v.1.15,2013-06-24 09:17:00,
2013-06-24 02:22:00,52.6,34.5,29.66,East,92,0.0,0.0,50,0.00,,,0.00,Wunderground v.1.15,2013-06-24 09:22:00,
2013-06-24 02:27:00,52.9,34.8,29.66,East,92,0.0,1.0,50,0.00,,,0.00,Wunderground v.1.15,2013-06-24 09:27:00,
2013-06-24 02:32:00,53.1,34.9,29.64,East,92,0.0,0.0,50,0.00,,,0.00,Wunderground v.1.15,2013-06-24 09:32:00,
2013-06-24 02:38:00,53.2,34.5,29.64,East,92,0.0,0.0,49,0.00,,,0.00,Wunderground v.1.15,2013-06-24 09:38:00,
2013-06-24 02:43:00,53.5,34.3,29.64,East,92,0.0,0.0,48,0.00,,,0.00,Wunderground v.1.15,2013-06-24 09:43:00,
2013-06-24 02:49:00,53.9,34.6,29.64,East,92,0.0,0.0,48,0.00,,,0.00,Wunderground v.1.15,2013-06-24 09:49:00,
2013-06-24 02:54:00,54.1,35.3,29.64,NW,326,4.0,4.0,49,0.00,,,0.00,Wunderground v.1.15,2013-06-24 09:54:00,
2013-06-24 02:59:00,54.1,35.3,29.64,NW,320,0.0,4.0,49,0.00,,,0.00,Wunderground v.1.15,2013-06-24 09:59:00,
2013-06-24 03:04:00,54.2,35.4,29.64,NW,320,0.0,1.0,49,0.00,,,0.00,Wunderground v.1.15,2013-06-24 10:04:00,
2013-06-24 03:09:00,54.2,35.4,29.64,NW,320,0.0,1.0,49,0.00,,,0.00,Wunderground v.1.15,2013-06-24 10:09:00,
2013-06-24 03:15:00,54.2,34.9,29.62,NW,320,0.0,1.0,48,0.00,,,0.00,Wunderground v.1.15,2013-06-24 10:15:00,
2013-06-24 03:20:00,54.2,34.4,29.62,NW,320,0.0,0.0,47,0.00,,,0.00,Wunderground v.1.15,2013-06-24 10:20:00,
2013-06-24 03:25:00,54.4,35.1,29.62,NW,320,0.0,0.0,48,0.00,,,0.00,Wunderground v.1.15,2013-06-24 10:25:00,
2013-06-24 03:30:00,54.5,34.7,29.62,NW,320,0.0,0.0,47,0.00,,,0.00,Wunderground v.1.15,2013-06-24 10:30:00,
2013-06-24 03:37:00,54.7,36.4,29.62,NW,320,0.0,1.0,50,0.00,,,0.00,Wunderground v.1.15,2013-06-24 10:37:00,
2013-06-24 03:42:00,54.7,36.9,29.62,NW,320,2.0,2.0,51,0.00,,,0.00,Wunderground v.1.15,2013-06-24 10:42:00,
2013-06-24 03:48:00,54.4,37.6,29.62,NW,320,0.0,2.0,53,0.00,,,0.00,Wunderground v.1.15,2013-06-24 10:48:00,
2013-06-24 03:53:00,54.1,38.7,29.62,NE,49,0.0,2.0,56,0.00,,,0.00,Wunderground v.1.15,2013-06-24 10:53:00,
2013-06-24 03:58:00,53.8,38.5,29.62,NE,49,0.0,2.0,56,0.00,,,0.00,Wunderground v.1.15,2013-06-24 10:58:00,
2013-06-24 04:03:00,53.6,37.8,29.62,NE,49,0.0,0.0,55,0.00,,,0.00,Wunderground v.1.15,2013-06-24 11:03:00,
2013-06-24 04:09:00,53.5,36.8,29.62,NE,49,0.0,1.0,53,0.00,,,0.00,Wunderground v.1.15,2013-06-24 11:09:00,
2013-06-24 04:14:00,53.5,36.8,29.62,NE,55,1.0,1.0,53,0.00,,,0.00,Wunderground v.1.15,2013-06-24 11:14:00,
2013-06-24 04:19:00,53.5,36.8,29.60,East,97,0.0,2.0,53,0.00,,,0.00,Wunderground v.1.15,2013-06-24 11:19:00,
2013-06-24 04:24:00,54.1,35.3,29.60,ESE,117,6.0,15.0,49,0.00,,,0.00,Wunderground v.1.15,2013-06-24 11:24:00,
2013-06-24 04:29:00,55.6,35.1,29.60,SE,137,11.0,16.0,46,0.00,,,0.00,Wunderground v.1.15,2013-06-24 11:29:00,
2013-06-24 04:34:00,56.7,35.0,29.59,SE,126,17.0,17.0,44,0.00,,,0.00,Wunderground v.1.15,2013-06-24 11:34:00,
2013-06-24 04:39:00,57.6,35.8,29.59,SE,130,7.0,17.0,44,0.00,,,0.00,Wunderground v.1.15,2013-06-24 11:39:00,
2013-06-24 04:44:00,58.1,35.7,29.59,SSE,151,8.0,21.0,43,0.00,,,0.00,Wunderground v.1.15,2013-06-24 11:44:00,
2013-06-24 04:49:00,58.4,36.6,29.58,ESE,123,15.0,21.0,44,0.00,,,0.00,Wunderground v.1.15,2013-06-24 11:49:00,
2013-06-24 04:54:00,58.6,36.7,29.58,SE,141,11.0,14.0,44,0.00,,,0.00,Wunderground v.1.15,2013-06-24 11:54:00,
2013-06-24 05:00:00,58.7,36.8,29.57,SE,133,14.0,20.0,44,0.00,,,0.00,Wunderground v.1.15,2013-06-24 12:00:00,
2013-06-24 05:05:00,58.7,36.8,29.57,SE,145,9.0,16.0,44,0.00,,,0.00,Wunderground v.1.15,2013-06-24 12:05:00,
2013-06-24 05:10:00,58.7,38.0,29.57,SSE,155,4.0,21.0,46,0.00,,,0.00,Wunderground v.1.15,2013-06-24 12:10:00,
2013-06-24 05:15:00,58.7,38.0,29.58,SE,124,11.0,11.0,46,0.00,,,0.00,Wunderground v.1.15,2013-06-24 12:15:00,
2013-06-24 05:20:00,58.6,37.9,29.58,SE,126,6.0,9.0,46,0.00,,,0.00,Wunderground v.1.15,2013-06-24 12:20:00,
2013-06-24 05:25:00,58.4,38.2,29.58,SE,145,0.0,9.0,47,0.00,,,0.00,Wunderground v.1.15,2013-06-24 12:25:00,
2013-06-24 05:31:00,58.3,38.1,29.58,SSW,200,4.0,9.0,47,0.00,,,0.00,Wunderground v.1.15,2013-06-24 12:31:00,
2013-06-24 05:36:00,58.1,38.0,29.58,SSE,150,6.0,14.0,47,0.00,,,0.00,Wunderground v.1.15,2013-06-24 12:36:00,
2013-06-24 05:41:00,58.1,38.0,29.58,South,184,8.0,8.0,47,0.00,,,0.00,Wunderground v.1.15,2013-06-24 12:41:00,
2013-06-24 05:46:00,58.3,38.1,29.59,South,175,10.0,10.0,47,0.00,,,0.00,Wunderground v.1.15,2013-06-24 12:46:00,
2013-06-24 05:51:00,58.3,37.6,29.59,South,181,0.0,6.0,46,0.00,,,0.00,Wunderground v.1.15,2013-06-24 12:51:00,
2013-06-24 05:56:00,58.4,37.7,29.59,SW,226,1.0,6.0,46,0.00,,,0.00,Wunderground v.1.15,2013-06-24 12:56:00,
2013-06-24 06:01:00,58.4,37.1,29.59,West,274,2.0,9.0,45,0.00,,,0.00,Wunderground v.1.15,2013-06-24 13:01:00,
2013-06-24 06:06:00,58.6,37.3,29.59,West,265,0.0,9.0,45,0.00,,,0.00,Wunderground v.1.15,2013-06-24 13:06:00,
2013-06-24 06:11:00,58.6,37.9,29.59,SE,126,0.0,3.0,46,0.00,,,0.00,Wunderground v.1.15,2013-06-24 13:11:00,
2013-06-24 06:16:00,58.6,38.4,29.58,SE,126,0.0,3.0,47,0.00,,,0.00,Wunderground v.1.15,2013-06-24 13:16:00,
2013-06-24 06:21:00,58.4,38.2,29.58,East,86,1.0,1.0,47,0.00,,,0.00,Wunderground v.1.15,2013-06-24 13:21:00,
2013-06-24 06:27:00,58.3,39.2,29.58,SSW,195,0.0,2.0,49,0.00,,,0.00,Wunderground v.1.15,2013-06-24 13:27:00,
2013-06-24 06:32:00,58.3,39.7,29.58,SSE,168,1.0,6.0,50,0.00,,,0.00,Wunderground v.1.15,2013-06-24 13:32:00,
2013-06-24 06:38:00,58.4,39.8,29.58,SE,140,7.0,13.0,50,0.00,,,0.00,Wunderground v.1.15,2013-06-24 13:38:00,
2013-06-24 06:43:00,58.6,39.5,29.58,SSE,150,7.0,15.0,49,0.00,,,0.00,Wunderground v.1.15,2013-06-24 13:43:00,
2013-06-24 06:49:00,58.7,39.6,29.57,South,188,11.0,15.0,49,0.00,,,0.00,Wunderground v.1.15,2013-06-24 13:49:00,
2013-06-24 06:54:00,58.9,39.8,29.57,SE,131,15.0,18.0,49,0.00,,,0.00,Wunderground v.1.15,2013-06-24 13:54:00,
2013-06-24 07:00:00,58.9,39.2,29.58,ESE,110,13.0,13.0,48,0.00,,,0.00,Wunderground v.1.15,2013-06-24 14:00:00,
2013-06-24 07:05:00,58.9,38.7,29.58,SSE,157,9.0,16.0,47,0.00,,,0.00,Wunderground v.1.15,2013-06-24 14:05:00,
2013-06-24 07:10:00,59.0,38.8,29.58,SE,137,14.0,14.0,47,0.00,,,0.00,Wunderground v.1.15,2013-06-24 14:10:00,
2013-06-24 07:15:00,59.2,39.0,29.61,SSE,155,11.0,14.0,47,0.00,,,0.00,Wunderground v.1.15,2013-06-24 14:15:00,
2013-06-24 07:21:00,59.3,38.5,29.61,SSE,157,8.0,10.0,46,0.00,,,0.00,Wunderground v.1.15,2013-06-24 14:21:00,
2013-06-24 07:26:00,59.3,38.5,29.61,SE,130,13.0,16.0,46,0.00,,,0.00,Wunderground v.1.15,2013-06-24 14:26:00,
2013-06-24 07:31:00,59.3,38.5,29.61,ESE,113,8.0,13.0,46,0.00,,,0.00,Wunderground v.1.15,2013-06-24 14:31:00,
2013-06-24 07:36:00,59.5,39.2,29.61,SE,134,8.0,17.0,47,0.00,,,0.00,Wunderground v.1.15,2013-06-24 14:36:00,
2013-06-24 07:41:00,59.5,38.7,29.61,SE,140,9.0,9.0,46,0.00,,,0.00,Wunderground v.1.15,2013-06-24 14:41:00,
2013-06-24 07:46:00,59.6,38.8,29.61,SSE,157,6.0,11.0,46,0.00,,,0.00,Wunderground v.1.15,2013-06-24 14:46:00,
2013-06-24 07:51:00,59.6,39.3,29.61,SE,127,7.0,14.0,47,0.00,,,0.00,Wunderground v.1.15,2013-06-24 14:51:00,
2013-06-24 07:56:00,59.8,39.5,29.61,SE,145,9.0,14.0,47,0.00,,,0.00,Wunderground v.1.15,2013-06-24 14:56:00,
2013-06-24 08:01:00,60.1,39.8,29.61,ESE,113,14.0,14.0,47,0.00,,,0.00,Wunderground v.1.15,2013-06-24 15:01:00,
2013-06-24 08:06:00,60.4,39.5,29.61,South,174,13.0,15.0,46,0.00,,,0.00,Wunderground v.1.15,2013-06-24 15:06:00,
2013-06-24 08:12:00,60.5,39.6,29.61,SSE,152,10.0,15.0,46,0.00,,,0.00,Wunderground v.1.15,2013-06-24 15:12:00,
2013-06-24 08:17:00,60.4,40.1,29.64,South,179,11.0,16.0,47,0.00,,,0.00,Wunderground v.1.15,2013-06-24 15:17:00,
2013-06-24 08:22:00,60.4,40.1,29.64,SSE,165,8.0,14.0,47,0.00,,,0.00,Wunderground v.1.15,2013-06-24 15:22:00,
2013-06-24 08:28:00,60.7,40.9,29.64,SSE,165,10.0,15.0,48,0.00,,,0.00,Wunderground v.1.15,2013-06-24 15:28:00,
2013-06-24 08:33:00,60.9,41.1,29.64,SSE,151,10.0,18.0,48,0.00,,,0.00,Wunderground v.1.15,2013-06-24 15:33:00,
2013-06-24 08:38:00,60.9,41.6,29.64,ESE,117,9.0,18.0,49,0.00,,,0.00,Wunderground v.1.15,2013-06-24 15:38:00,
2013-06-24 08:43:00,60.9,41.6,29.64,South,174,6.0,14.0,49,0.00,,,0.00,Wunderground v.1.15,2013-06-24 15:43:00,
2013-06-24 08:48:00,61.0,41.7,29.64,SSE,150,7.0,14.0,49,0.00,,,0.00,Wunderground v.1.15,2013-06-24 15:48:00,
2013-06-24 08:53:00,61.5,42.2,29.64,SSE,162,0.0,10.0,49,0.00,,,0.00,Wunderground v.1.15,2013-06-24 15:53:00,
2013-06-24 08:59:00,62.3,42.9,29.64,SSE,162,6.0,16.0,49,0.00,,,0.00,Wunderground v.1.15,2013-06-24 15:59:00,
2013-06-24 09:04:00,62.6,43.2,29.64,South,172,11.0,14.0,49,0.00,,,0.00,Wunderground v.1.15,2013-06-24 16:04:00,
2013-06-24 09:10:00,62.6,43.7,29.64,SSE,150,7.0,8.0,50,0.00,,,0.00,Wunderground v.1.15,2013-06-24 16:10:00,
2013-06-24 09:15:00,62.9,42.9,29.66,SSE,158,4.0,9.0,48,0.00,,,0.00,Wunderground v.1.15,2013-06-24 16:15:00,
2013-06-24 09:20:00,62.9,43.4,29.66,SSW,210,7.0,7.0,49,0.00,,,0.00,Wunderground v.1.15,2013-06-24 16:20:00,
2013-06-24 09:26:00,63.2,43.7,29.66,WSW,248,1.0,9.0,49,0.00,,,0.00,Wunderground v.1.15,2013-06-24 16:26:00,
2013-06-24 09:31:00,63.4,43.9,29.65,South,172,7.0,7.0,49,0.00,,,0.00,Wunderground v.1.15,2013-06-24 16:31:00,
2013-06-24 09:36:00,63.4,44.4,29.65,WSW,243,0.0,10.0,50,0.00,,,0.00,Wunderground v.1.15,2013-06-24 16:36:00,
2013-06-24 09:42:00,63.2,44.2,29.65,SSW,213,1.0,4.0,50,0.00,,,0.00,Wunderground v.1.15,2013-06-24 16:42:00,
2013-06-24 09:47:00,63.5,44.0,29.65,SE,128,6.0,9.0,49,0.00,,,0.00,Wunderground v.1.15,2013-06-24 16:47:00,
2013-06-24 09:52:00,63.9,43.8,29.65,SW,229,6.0,7.0,48,0.00,,,0.00,Wunderground v.1.15,2013-06-24 16:52:00,
2013-06-24 09:57:00,64.2,43.5,29.65,ESE,123,0.0,7.0,47,0.00,,,0.00,Wunderground v.1.15,2013-06-24 16:57:00,
2013-06-24 10:02:00,64.5,43.8,29.65,SSW,212,6.0,9.0,47,0.00,,,0.00,Wunderground v.1.15,2013-06-24 17:02:00,
2013-06-24 10:07:00,64.7,43.4,29.65,South,181,4.0,10.0,46,0.00,,,0.00,Wunderground v.1.15,2013-06-24 17:07:00,
2013-06-24 10:13:00,64.7,43.4,29.65,SW,224,2.0,6.0,46,0.00,,,0.00,Wunderground v.1.15,2013-06-24 17:13:00,
2013-06-24 10:18:00,64.8,42.9,29.64,South,191,6.0,8.0,45,0.00,,,0.00,Wunderground v.1.15,2013-06-24 17:18:00,
2013-06-24 10:23:00,64.8,42.9,29.64,SSW,198,14.0,14.0,45,0.00,,,0.00,Wunderground v.1.15,2013-06-24 17:23:00,
2013-06-24 10:28:00,64.7,43.4,29.64,SSE,155,7.0,14.0,46,0.00,,,0.00,Wunderground v.1.15,2013-06-24 17:28:00,
2013-06-24 10:34:00,64.8,42.4,29.65,SSE,158,11.0,14.0,44,0.00,,,0.00,Wunderground v.1.15,2013-06-24 17:34:00,
2013-06-24 10:39:00,65.2,42.7,29.65,South,185,9.0,15.0,44,0.00,,,0.00,Wunderground v.1.15,2013-06-24 17:39:00,
2013-06-24 10:44:00,65.5,42.4,29.64,South,172,9.0,15.0,43,0.00,,,0.00,Wunderground v.1.15,2013-06-24 17:44:00,
2013-06-24 10:49:00,65.8,42.7,29.64,SSW,196,11.0,18.0,43,0.00,,,0.00,Wunderground v.1.15,2013-06-24 17:49:00,
2013-06-24 10:54:00,66.0,42.9,29.64,SE,143,9.0,21.0,43,0.00,,,0.00,Wunderground v.1.15,2013-06-24 17:54:00,
2013-06-24 10:59:00,65.6,43.1,29.64,South,182,11.0,21.0,44,0.00,,,0.00,Wunderground v.1.15,2013-06-24 17:59:00,
2013-06-24 11:05:00,65.0,43.7,29.64,SSE,160,10.0,18.0,46,0.00,,,0.00,Wunderground v.1.15,2013-06-24 18:05:00,
2013-06-24 11:10:00,65.3,44.0,29.64,SE,138,8.0,12.0,46,0.00,,,0.00,Wunderground v.1.15,2013-06-24 18:10:00,
2013-06-24 11:15:00,66.0,43.5,29.64,SSE,162,14.0,22.0,44,0.00,,,0.00,Wunderground v.1.15,2013-06-24 18:15:00,
2013-06-24 11:20:00,66.4,43.8,29.64,SE,144,7.0,11.0,44,0.00,,,0.00,Wunderground v.1.15,2013-06-24 18:20:00,
2013-06-24 11:25:00,67.3,42.8,29.64,SSE,161,16.0,22.0,41,0.00,,,0.00,Wunderground v.1.15,2013-06-24 18:25:00,
2013-06-24 11:30:00,67.8,43.2,29.65,South,182,11.0,11.0,41,0.00,,,0.00,Wunderground v.1.15,2013-06-24 18:30:00,
2013-06-24 11:35:00,67.6,43.7,29.65,SE,140,1.0,15.0,42,0.00,,,0.00,Wunderground v.1.15,2013-06-24 18:35:00,
2013-06-24 11:40:00,67.3,44.0,29.65,SSE,158,11.0,15.0,43,0.00,,,0.00,Wunderground v.1.15,2013-06-24 18:40:00,
2013-06-24 11:46:00,66.6,44.0,29.65,South,186,14.0,15.0,44,0.00,,,0.00,Wunderground v.1.15,2013-06-24 18:46:00,
2013-06-24 11:51:00,66.3,43.1,29.65,SSE,165,13.0,20.0,43,0.00,,,0.00,Wunderground v.1.15,2013-06-24 18:51:00,
2013-06-24 11:56:00,66.3,43.1,29.65,SE,127,14.0,20.0,43,0.00,,,0.00,Wunderground v.1.15,2013-06-24 18:56:00,
2013-06-24 12:02:00,66.1,43.5,29.66,SSE,168,15.0,15.0,44,0.00,,,0.00,Wunderground v.1.15,2013-06-24 19:02:00,
2013-06-24 12:07:00,66.0,44.0,29.66,South,186,9.0,17.0,45,0.00,,,0.00,Wunderground v.1.15,2013-06-24 19:07:00,
2013-06-24 12:12:00,66.1,44.1,29.66,SSE,157,8.0,16.0,45,0.00,,,0.00,Wunderground v.1.15,2013-06-24 19:12:00,
2013-06-24 12:17:00,66.4,43.8,29.67,SSE,164,11.0,16.0,44,0.00,,,0.00,Wunderground v.1.15,2013-06-24 19:17:00,
2013-06-24 12:22:00,66.6,44.0,29.67,SSE,168,8.0,16.0,44,0.00,,,0.00,Wunderground v.1.15,2013-06-24 19:22:00,
2013-06-24 12:27:00,66.8,44.2,29.67,South,179,10.0,16.0,44,0.00,,,0.00,Wunderground v.1.15,2013-06-24 19:27:00,
2013-06-24 12:32:00,66.8,44.2,29.66,SSE,157,11.0,13.0,44,0.00,,,0.00,Wunderground v.1.15,2013-06-24 19:32:00,
2013-06-24 12:37:00,66.9,44.3,29.66,SW,232,7.0,20.0,44,0.00,,,0.00,Wunderground v.1.15,2013-06-24 19:37:00,
2013-06-24 12:43:00,67.1,44.4,29.66,SSE,147,8.0,18.0,44,0.00,,,0.00,Wunderground v.1.15,2013-06-24 19:43:00,
2013-06-24 12:48:00,67.1,44.4,29.67,South,172,10.0,18.0,44,0.00,,,0.00,Wunderground v.1.15,2013-06-24 19:48:00,
2013-06-24 12:53:00,66.9,44.3,29.67,SSW,195,7.0,16.0,44,0.00,,,0.00,Wunderground v.1.15,2013-06-24 19:53:00,
2013-06-24 12:58:00,66.6,44.0,29.67,South,178,7.0,16.0,44,0.00,,,0.00,Wunderground v.1.15,2013-06-24 19:58:00,
2013-06-24 13:03:00,66.4,43.8,29.67,SE,136,11.0,18.0,44,0.00,,,0.00,Wunderground v.1.15,2013-06-24 20:03:00,
2013-06-24 13:09:00,66.6,44.0,29.67,SE,144,16.0,18.0,44,0.00,,,0.00,Wunderground v.1.15,2013-06-24 20:09:00,
2013-06-24 13:14:00,66.6,44.6,29.67,SSE,162,6.0,17.0,45,0.00,,,0.00,Wunderground v.1.15,2013-06-24 20:14:00,
2013-06-24 13:19:00,66.6,44.0,29.68,ESE,120,14.0,22.0,44,0.00,,,0.00,Wunderground v.1.15,2013-06-24 20:19:00,
2013-06-24 13:24:00,66.4,43.8,29.68,SSE,165,16.0,24.0,44,0.00,,,0.00,Wunderground v.1.15,2013-06-24 20:24:00,
2013-06-24 13:29:00,66.3,44.3,29.68,SE,140,16.0,24.0,45,0.00,,,0.00,Wunderground v.1.15,2013-06-24 20:29:00,
2013-06-24 13:34:00,66.4,43.8,29.68,SE,138,9.0,23.0,44,0.00,,,0.00,Wunderground v.1.15,2013-06-24 20:34:00,
2013-06-24 13:39:00,66.6,43.4,29.68,SE,130,13.0,23.0,43,0.00,,,0.00,Wunderground v.1.15,2013-06-24 20:39:00,
2013-06-24 13:45:00,66.8,44.2,29.68,SE,136,14.0,26.0,44,0.00,,,0.00,Wunderground v.1.15,2013-06-24 20:45:00,
2013-06-24 13:51:00,66.6,44.6,29.68,East,100,14.0,14.0,45,0.00,,,0.00,Wunderground v.1.15,2013-06-24 20:51:00,
2013-06-24 13:56:00,66.8,44.2,29.68,ESE,121,8.0,21.0,44,0.00,,,0.00,Wunderground v.1.15,2013-06-24 20:56:00,
2013-06-24 14:01:00,66.9,44.3,29.69,SSW,192,16.0,18.0,44,0.00,,,0.00,Wunderground v.1.15,2013-06-24 21:01:00,
2013-06-24 14:06:00,66.8,44.2,29.69,South,178,11.0,22.0,44,0.00,,,0.00,Wunderground v.1.15,2013-06-24 21:06:00,
2013-06-24 14:11:00,66.9,43.7,29.69,SE,136,11.0,17.0,43,0.00,,,0.00,Wunderground v.1.15,2013-06-24 21:11:00,
2013-06-24 14:16:00,66.8,44.2,29.67,SSE,152,11.0,22.0,44,0.00,,,0.00,Wunderground v.1.15,2013-06-24 21:16:00,
2013-06-24 14:22:00,66.6,44.0,29.67,SSW,205,10.0,14.0,44,0.00,,,0.00,Wunderground v.1.15,2013-06-24 21:22:00,
2013-06-24 14:27:00,66.6,44.6,29.67,SSW,198,9.0,21.0,45,0.00,,,0.00,Wunderground v.1.15,2013-06-24 21:27:00,
2013-06-24 14:32:00,66.4,44.4,29.68,SE,138,6.0,18.0,45,0.00,,,0.00,Wunderground v.1.15,2013-06-24 21:32:00,
2013-06-24 14:37:00,66.8,44.2,29.68,SSE,164,11.0,18.0,44,0.00,,,0.00,Wunderground v.1.15,2013-06-24 21:37:00,
2013-06-24 14:42:00,66.6,44.0,29.68,SSE,161,6.0,16.0,44,0.00,,,0.00,Wunderground v.1.15,2013-06-24 21:42:00,
2013-06-24 14:47:00,66.4,43.8,29.69,SE,130,10.0,20.0,44,0.00,,,0.00,Wunderground v.1.15,2013-06-24 21:47:00,
2013-06-24 14:54:00,66.0,44.6,29.69,SE,136,16.0,22.0,46,0.00,,,0.00,Wunderground v.1.15,2013-06-24 21:54:00,
2013-06-24 14:59:00,65.5,44.7,29.69,SSE,162,14.0,22.0,47,0.00,,,0.00,Wunderground v.1.15,2013-06-24 21:59:00,
2013-06-24 15:04:00,65.2,44.5,29.69,SE,140,7.0,16.0,47,0.00,,,0.00,Wunderground v.1.15,2013-06-24 22:04:00,
2013-06-24 15:09:00,65.0,44.3,29.69,South,184,7.0,16.0,47,0.00,,,0.00,Wunderground v.1.15,2013-06-24 22:09:00,
2013-06-24 15:14:00,64.5,46.0,29.72,ESE,117,4.0,11.0,51,0.00,,,0.00,Wunderground v.1.15,2013-06-24 22:14:00,
2013-06-24 15:19:00,64.3,47.3,29.72,SW,217,4.0,13.0,54,0.00,,,0.00,Wunderground v.1.15,2013-06-24 22:19:00,
2013-06-24 15:24:00,63.9,47.9,29.72,NW,320,6.0,7.0,56,0.00,,,0.00,Wunderground v.1.15,2013-06-24 22:24:00,
2013-06-24 15:30:00,62.6,49.4,29.73,West,261,0.0,7.0,62,0.00,,,0.00,Wunderground v.1.15,2013-06-24 22:30:00,
2013-06-24 15:35:00,61.5,48.8,29.73,West,264,0.0,9.0,63,0.00,,,0.00,Wunderground v.1.15,2013-06-24 22:35:00,
2013-06-24 15:40:00,61.0,49.1,29.73,WNW,292,4.0,4.0,65,0.00,,,0.00,Wunderground v.1.15,2013-06-24 22:40:00,
2013-06-24 15:45:00,60.7,49.3,29.74,WNW,289,8.0,10.0,66,0.00,,,0.00,Wunderground v.1.15,2013-06-24 22:45:00,
2013-06-24 15:50:00,60.4,49.0,29.74,WNW,298,10.0,10.0,66,0.00,,,0.00,Wunderground v.1.15,2013-06-24 22:50:00,
2013-06-24 15:55:00,60.5,49.5,29.74,WNW,292,8.0,10.0,67,0.00,,,0.00,Wunderground v.1.15,2013-06-24 22:55:00,
2013-06-24 16:01:00,60.9,49.1,29.74,West,261,0.0,5.0,65,0.00,,,0.00,Wunderground v.1.15,2013-06-24 23:01:00,
2013-06-24 16:06:00,61.5,48.4,29.74,NW,319,0.0,9.0,62,0.00,,,0.00,Wunderground v.1.15,2013-06-24 23:06:00,
2013-06-24 16:11:00,62.0,48.4,29.74,West,278,1.0,2.0,61,0.00,,,0.00,Wunderground v.1.15,2013-06-24 23:11:00,
2013-06-24 16:16:00,62.6,46.7,29.71,WNW,289,4.0,8.0,56,0.00,,,0.00,Wunderground v.1.15,2013-06-24 23:16:00,
2013-06-24 16:21:00,63.7,48.2,29.71,NNW,342,1.0,4.0,57,0.00,,,0.00,Wunderground v.1.15,2013-06-24 23:21:00,
2013-06-24 16:27:00,66.9,47.1,29.71,WSW,237,0.0,4.0,49,0.00,,,0.00,Wunderground v.1.15,2013-06-24 23:27:00,
2013-06-24 16:32:00,67.9,48.6,29.68,WSW,251,2.0,7.0,50,0.00,,,0.00,Wunderground v.1.15,2013-06-24 23:32:00,
2013-06-24 16:37:00,67.9,46.3,29.68,NW,319,4.0,9.0,46,0.00,,,0.00,Wunderground v.1.15,2013-06-24 23:37:00,
2013-06-24 16:42:00,68.3,47.3,29.68,ESE,107,4.0,4.0,47,0.00,,,0.00,Wunderground v.1.15,2013-06-24 23:42:00,
2013-06-24 16:47:00,70.6,49.4,29.68,ENE,72,4.0,4.0,47,0.00,,,0.00,Wunderground v.1.15,2013-06-24 23:47:00,
2013-06-24 16:52:00,71.6,48.5,29.68,SE,131,1.0,1.0,44,0.00,,,0.00,Wunderground v.1.15,2013-06-24 23:52:00,
2013-06-24 16:57:00,70.1,47.8,29.68,NE,44,2.0,6.0,45,0.00,,,0.00,Wunderground v.1.15,2013-06-24 23:57:00,
2013-06-24 17:02:00,66.6,47.4,29.70,North,359,2.0,4.0,50,0.00,,,0.00,Wunderground v.1.15,2013-06-25 00:02:00,
2013-06-24 17:07:00,65.0,46.9,29.70,NNW,332,4.0,6.0,52,0.00,,,0.00,Wunderground v.1.15,2013-06-25 00:07:00,
2013-06-24 17:12:00,63.9,46.4,29.70,NNW,342,0.0,1.0,53,0.00,,,0.00,Wunderground v.1.15,2013-06-25 00:12:00,
2013-06-24 17:17:00,63.7,46.7,29.73,NNW,342,0.0,1.0,54,0.00,,,0.00,Wunderground v.1.15,2013-06-25 00:17:00,
2013-06-24 17:22:00,63.1,49.9,29.73,North,349,2.0,6.0,62,0.00,,,0.00,Wunderground v.1.15,2013-06-25 00:22:00,
2013-06-24 17:27:00,62.3,47.3,29.73,NNW,343,0.0,6.0,58,0.00,,,0.00,Wunderground v.1.15,2013-06-25 00:27:00,
2013-06-24 17:33:00,61.6,49.3,29.73,NW,322,4.0,7.0,64,0.00,,,0.00,Wunderground v.1.15,2013-06-25 00:33:00,
2013-06-24 17:38:00,61.2,48.1,29.73,North,0,1.0,7.0,62,0.00,,,0.00,Wunderground v.1.15,2013-06-25 00:38:00,
2013-06-24 17:43:00,60.9,48.6,29.73,NNE,25,0.0,4.0,64,0.00,,,0.01,Wunderground v.1.15,2013-06-25 00:43:00,
2013-06-24 17:49:00,60.5,48.3,29.74,NNW,336,2.0,8.0,64,0.00,,,0.01,Wunderground v.1.15,2013-06-25 00:49:00,
2013-06-24 17:54:00,60.4,47.3,29.74,NW,325,0.0,4.0,62,0.00,,,0.01,Wunderground v.1.15,2013-06-25 00:54:00,
2013-06-24 17:59:00,60.7,46.7,29.74,NW,323,0.0,4.0,60,0.00,,,0.01,Wunderground v.1.15,2013-06-25 00:59:00,
2013-06-24 18:04:00,61.2,47.2,29.74,NW,323,0.0,0.0,60,0.00,,,0.01,Wunderground v.1.15,2013-06-25 01:04:00,
2013-06-24 18:10:00,61.5,47.5,29.74,SE,126,0.0,0.0,60,0.00,,,0.01,Wunderground v.1.15,2013-06-25 01:10:00,
2013-06-24 18:15:00,61.8,46.4,29.72,ESE,121,0.0,4.0,57,0.00,,,0.01,Wunderground v.1.15,2013-06-25 01:15:00,
2013-06-24 18:21:00,61.8,46.9,29.72,SSW,192,0.0,1.0,58,0.00,,,0.01,Wunderground v.1.15,2013-06-25 01:21:00,
2013-06-24 18:26:00,62.0,45.6,29.72,WNW,299,0.0,4.0,55,0.00,,,0.01,Wunderground v.1.15,2013-06-25 01:26:00,
2013-06-24 18:31:00,62.0,45.6,29.73,WNW,299,0.0,0.0,55,0.00,,,0.01,Wunderground v.1.15,2013-06-25 01:31:00,
2013-06-24 18:36:00,62.1,45.7,29.73,SSE,161,6.0,6.0,55,0.00,,,0.01,Wunderground v.1.15,2013-06-25 01:36:00,
2013-06-24 18:41:00,62.3,46.4,29.73,SSW,200,0.0,10.0,56,0.00,,,0.01,Wunderground v.1.15,2013-06-25 01:41:00,
2013-06-24 18:46:00,62.3,45.9,29.73,SSE,160,6.0,11.0,55,0.00,,,0.01,Wunderground v.1.15,2013-06-25 01:46:00,
2013-06-24 18:51:00,62.3,45.4,29.73,ESE,113,8.0,8.0,54,0.00,,,0.01,Wunderground v.1.15,2013-06-25 01:51:00,
2013-06-24 18:57:00,62.1,45.7,29.73,SSE,162,4.0,9.0,55,0.00,,,0.01,Wunderground v.1.15,2013-06-25 01:57:00,
2013-06-24 19:02:00,62.0,45.6,29.73,SE,143,4.0,11.0,55,0.00,,,0.01,Wunderground v.1.15,2013-06-25 02:02:00,
2013-06-24 19:07:00,62.0,45.6,29.73,South,186,7.0,13.0,55,0.00,,,0.01,Wunderground v.1.15,2013-06-25 02:07:00,
2013-06-24 19:12:00,61.8,45.5,29.73,South,181,7.0,7.0,55,0.00,,,0.01,Wunderground v.1.15,2013-06-25 02:12:00,
2013-06-24 19:17:00,61.8,45.0,29.72,SSE,152,11.0,14.0,54,0.00,,,0.01,Wunderground v.1.15,2013-06-25 02:17:00,
2013-06-24 19:22:00,61.6,44.3,29.72,SSE,157,10.0,13.0,53,0.00,,,0.01,Wunderground v.1.15,2013-06-25 02:22:00,
2013-06-24 19:27:00,61.5,44.2,29.72,SE,143,13.0,15.0,53,0.00,,,0.01,Wunderground v.1.15,2013-06-25 02:27:00,
2013-06-24 19:32:00,61.2,43.9,29.74,SE,140,11.0,17.0,53,0.00,,,0.01,Wunderground v.1.15,2013-06-25 02:32:00,
2013-06-24 19:37:00,61.0,43.7,29.74,SSE,155,9.0,17.0,53,0.00,,,0.01,Wunderground v.1.15,2013-06-25 02:37:00,
2013-06-24 19:42:00,60.9,44.1,29.74,SSW,202,7.0,13.0,54,0.00,,,0.01,Wunderground v.1.15,2013-06-25 02:42:00,
2013-06-24 19:47:00,60.7,43.9,29.75,SSW,192,9.0,13.0,54,0.00,,,0.01,Wunderground v.1.15,2013-06-25 02:47:00,
2013-06-24 19:52:00,60.5,43.8,29.75,SSW,202,2.0,11.0,54,0.00,,,0.01,Wunderground v.1.15,2013-06-25 02:52:00,
2013-06-24 19:57:00,60.5,43.8,29.75,SE,145,9.0,14.0,54,0.00,,,0.01,Wunderground v.1.15,2013-06-25 02:57:00,
2013-06-24 20:02:00,60.4,44.2,29.74,SSE,165,6.0,15.0,55,0.00,,,0.01,Wunderground v.1.15,2013-06-25 03:02:00,
2013-06-24 20:07:00,60.2,44.0,29.74,ESE,117,7.0,15.0,55,0.00,,,0.01,Wunderground v.1.15,2013-06-25 03:07:00,
2013-06-24 20:13:00,60.2,43.5,29.74,SSE,150,14.0,14.0,54,0.00,,,0.01,Wunderground v.1.15,2013-06-25 03:13:00,
2013-06-24 20:19:00,60.2,43.5,29.74,SSW,199,11.0,14.0,54,0.00,,,0.01,Wunderground v.1.15,2013-06-25 03:19:00,
2013-06-24 20:24:00,60.2,43.5,29.74,SSW,199,4.0,10.0,54,0.00,,,0.01,Wunderground v.1.15,2013-06-25 03:24:00,
2013-06-24 20:29:00,60.1,43.4,29.74,SE,138,14.0,14.0,54,0.00,,,0.01,Wunderground v.1.15,2013-06-25 03:29:00,
2013-06-24 20:34:00,60.1,43.9,29.74,SSE,154,10.0,10.0,55,0.00,,,0.01,Wunderground v.1.15,2013-06-25 03:34:00,
2013-06-24 20:40:00,59.9,43.7,29.74,South,169,2.0,10.0,55,0.00,,,0.01,Wunderground v.1.15,2013-06-25 03:40:00,
2013-06-24 20:45:00,59.9,43.7,29.73,SSE,154,7.0,7.0,55,0.00,,,0.01,Wunderground v.1.15,2013-06-25 03:45:00,
2013-06-24 20:50:00,59.8,43.6,29.73,SSW,196,6.0,9.0,55,0.00,,,0.01,Wunderground v.1.15,2013-06-25 03:50:00,
2013-06-24 20:56:00,59.8,44.1,29.73,SSE,160,6.0,9.0,56,0.00,,,0.01,Wunderground v.1.15,2013-06-25 03:56:00,
2013-06-24 21:01:00,59.6,43.9,29.74,SSE,158,0.0,5.0,56,0.00,,,0.01,Wunderground v.1.15,2013-06-25 04:01:00,
2013-06-24 21:02:00,59.5,43.8,29.74,SE,134,0.0,5.0,56,0.00,,,0.01,Wunderground v.1.15,2013-06-25 04:02:00,
2013-06-24 21:07:00,59.5,43.8,29.74,SE,145,8.0,11.0,56,0.00,,,0.01,Wunderground v.1.15,2013-06-25 04:07:00,
2013-06-24 21:12:00,59.5,44.2,29.74,ENE,68,2.0,7.0,57,0.00,,,0.01,Wunderground v.1.15,2013-06-25 04:12:00,
2013-06-24 21:17:00,59.2,45.3,29.73,NNE,16,0.0,7.0,60,0.00,,,0.01,Wunderground v.1.15,2013-06-25 04:17:00,
2013-06-24 21:22:00,58.9,45.0,29.73,NNE,13,0.0,4.0,60,0.00,,,0.01,Wunderground v.1.15,2013-06-25 04:22:00,
2013-06-24 21:27:00,58.7,45.7,29.73,NNE,13,0.0,4.0,62,0.00,,,0.01,Wunderground v.1.15,2013-06-25 04:27:00,
2013-06-24 21:32:00,58.6,44.3,29.74,SSW,198,1.0,2.0,59,0.00,,,0.01,Wunderground v.1.15,2013-06-25 04:32:00,
2013-06-24 21:37:00,58.6,44.3,29.74,East,88,0.0,2.0,59,0.00,,,0.01,Wunderground v.1.15,2013-06-25 04:37:00,
2013-06-24 21:42:00,58.7,44.0,29.74,SE,134,7.0,10.0,58,0.00,,,0.01,Wunderground v.1.15,2013-06-25 04:42:00,
2013-06-24 21:47:00,59.0,44.2,29.74,South,178,4.0,13.0,58,0.00,,,0.01,Wunderground v.1.15,2013-06-25 04:47:00,
2013-06-24 21:52:00,59.2,44.4,29.74,South,182,6.0,8.0,58,0.00,,,0.01,Wunderground v.1.15,2013-06-25 04:52:00,
2013-06-24 21:57:00,59.2,44.0,29.74,South,174,8.0,15.0,57,0.00,,,0.01,Wunderground v.1.15,2013-06-25 04:57:00,
2013-06-24 22:02:00,59.3,44.1,29.75,SSE,160,0.0,11.0,57,0.00,,,0.01,Wunderground v.1.15,2013-06-25 05:02:00,
2013-06-24 22:07:00,59.3,44.5,29.75,South,176,0.0,11.0,58,0.00,,,0.01,Wunderground v.1.15,2013-06-25 05:07:00,
2013-06-24 22:12:00,59.2,45.3,29.75,SW,217,0.0,6.0,60,0.00,,,0.01,Wunderground v.1.15,2013-06-25 05:12:00,
2013-06-24 22:17:00,58.9,45.5,29.75,SW,232,0.0,8.0,61,0.00,,,0.01,Wunderground v.1.15,2013-06-25 05:17:00,
2013-06-24 22:22:00,58.6,46.0,29.75,SW,216,0.0,4.0,63,0.00,,,0.01,Wunderground v.1.15,2013-06-25 05:22:00,
2013-06-24 22:27:00,58.3,46.6,29.75,SSW,199,0.0,4.0,65,0.00,,,0.01,Wunderground v.1.15,2013-06-25 05:27:00,
2013-06-24 22:32:00,58.0,46.7,29.75,WSW,243,0.0,1.0,66,0.00,,,0.01,Wunderground v.1.15,2013-06-25 05:32:00,
2013-06-24 22:37:00,57.8,46.5,29.75,WNW,302,0.0,2.0,66,0.00,,,0.01,Wunderground v.1.15,2013-06-25 05:37:00,
2013-06-24 22:43:00,57.6,46.7,29.75,WNW,289,0.0,0.0,67,0.00,,,0.01,Wunderground v.1.15,2013-06-25 05:43:00,
2013-06-24 22:48:00,57.5,46.2,29.76,West,264,0.0,2.0,66,0.00,,,0.01,Wunderground v.1.15,2013-06-25 05:48:00,
2013-06-24 22:53:00,57.5,45.8,29.76,South,182,0.0,0.0,65,0.00,,,0.01,Wunderground v.1.15,2013-06-25 05:53:00,
2013-06-24 22:58:00,57.5,45.8,29.76,ESE,121,6.0,7.0,65,0.00,,,0.01,Wunderground v.1.15,2013-06-25 05:58:00,
2013-06-24 23:03:00,57.5,45.8,29.76,ESE,110,0.0,0.0,65,0.00,,,0.01,Wunderground v.1.15,2013-06-25 06:03:00,
2013-06-24 23:09:00,57.5,45.8,29.76,ESE,112,0.0,1.0,65,0.00,,,0.01,Wunderground v.1.15,2013-06-25 06:09:00,
2013-06-24 23:14:00,57.5,45.8,29.76,WSW,243,0.0,0.0,65,0.00,,,0.01,Wunderground v.1.15,2013-06-25 06:14:00,
2013-06-24 23:19:00,57.5,46.2,29.76,WSW,246,0.0,1.0,66,0.00,,,0.01,Wunderground v.1.15,2013-06-25 06:19:00,
2013-06-24 23:24:00,57.6,46.7,29.76,WSW,246,0.0,0.0,67,0.00,,,0.01,Wunderground v.1.15,2013-06-25 06:24:00,
2013-06-24 23:29:00,57.5,46.2,29.76,WSW,246,0.0,0.0,66,0.00,,,0.01,Wunderground v.1.15,2013-06-25 06:29:00,
2013-06-24 23:34:00,57.5,46.2,29.76,WSW,243,0.0,2.0,66,0.00,,,0.01,Wunderground v.1.15,2013-06-25 06:34:00,
2013-06-24 23:39:00,57.5,46.6,29.76,West,270,0.0,2.0,67,0.00,,,0.01,Wunderground v.1.15,2013-06-25 06:39:00,
2013-06-24 23:44:00,57.5,45.8,29.76,West,260,0.0,1.0,65,0.00,,,0.01,Wunderground v.1.15,2013-06-25 06:44:00,
2013-06-24 23:49:00,57.6,46.3,29.76,West,260,0.0,1.0,66,0.00,,,0.01,Wunderground v.1.15,2013-06-25 06:49:00,
2013-06-24 23:54:00,57.6,47.1,29.76,West,260,0.0,0.0,68,0.00,,,0.01,Wunderground v.1.15,2013-06-25 06:54:00,
2013-06-24 23:59:00,57.6,47.1,29.76,ENE,75,0.0,2.0,68,0.00,,,0.01,Wunderground v.1.15,2013-06-25 06:59:00,